createdAt,value
2023-04-20T00:02:27.108Z,24.30
2023-04-20T00:04:55.226Z,24.26
2023-04-20T00:07:27.424Z,24.28
2023-04-20T00:10:03.571Z,24.26
2023-04-20T00:12:42.021Z,24.23
2023-04-20T00:15:18.324Z,24.24
2023-04-20T00:18:00.743Z,24.22
2023-04-20T00:20:43.490Z,24.23
2023-04-20T00:23:20.117Z,24.23
2023-04-20T00:25:55.741Z,24.22
2023-04-20T00:28:26.926Z,24.22
2023-04-20T00:31:06.450Z,24.22
2023-04-20T00:33:40.032Z,24.21
2023-04-20T00:36:14.132Z,24.21
2023-04-20T00:38:47.809Z,24.22
2023-04-20T00:41:26.460Z,24.21
2023-04-20T00:44:05.266Z,24.23
2023-04-20T00:46:43.596Z,24.23
2023-04-20T00:49:19.080Z,24.21
2023-04-20T00:52:01.546Z,24.21
2023-04-20T00:54:36.511Z,24.22
2023-04-20T00:57:16.677Z,24.21
2023-04-20T00:59:54.108Z,24.18
2023-04-20T01:02:31.463Z,24.18
2023-04-20T01:05:13.493Z,24.20
2023-04-20T01:07:54.425Z,24.21
2023-04-20T01:10:29.688Z,24.25
2023-04-20T01:13:03.849Z,24.25
2023-04-20T01:15:39.340Z,24.28
2023-04-20T01:18:15.406Z,24.31
2023-04-20T01:20:56.514Z,24.30
2023-04-20T01:23:39.990Z,24.26
2023-04-20T01:26:13.627Z,24.23
2023-04-20T01:28:43.806Z,24.20
2023-04-20T01:31:24.184Z,24.19
2023-04-20T01:34:06.627Z,24.19
2023-04-20T01:36:39.985Z,24.18
2023-04-20T01:39:16.673Z,24.14
2023-04-20T01:41:52.483Z,24.18
2023-04-20T01:44:31.485Z,24.18
2023-04-20T01:47:09.568Z,24.17
2023-04-20T01:49:45.480Z,24.18
2023-04-20T01:52:15.293Z,24.19
2023-04-20T01:54:53.977Z,24.16
2023-04-20T01:57:37.331Z,24.19
2023-04-20T02:00:11.229Z,24.20
2023-04-20T02:02:45.081Z,24.18
2023-04-20T02:05:18.279Z,24.17
2023-04-20T02:08:00.083Z,24.14
2023-04-20T02:10:33.224Z,24.13
2023-04-20T02:13:06.003Z,24.14
2023-04-20T02:15:41.453Z,24.09
2023-04-20T02:18:16.443Z,24.10
2023-04-20T02:20:52.671Z,24.07
2023-04-20T02:23:27.042Z,24.07
2023-04-20T02:26:03.201Z,24.07
2023-04-20T02:28:38.837Z,24.07
2023-04-20T02:31:08.757Z,24.06
2023-04-20T02:33:47.757Z,24.03
2023-04-20T02:36:24.105Z,24.03
2023-04-20T02:38:58.343Z,24.05
2023-04-20T02:41:33.393Z,24.04
2023-04-20T02:44:11.977Z,24.02
2023-04-20T02:46:42.260Z,24.02
2023-04-20T02:49:23.956Z,24.01
2023-04-20T02:51:58.072Z,23.99
2023-04-20T02:54:37.247Z,23.99
2023-04-20T02:57:13.395Z,23.96
2023-04-20T02:59:48.862Z,23.98
2023-04-20T03:02:26.960Z,23.97
2023-04-20T03:05:04.527Z,23.97
2023-04-20T03:07:48.899Z,23.97
2023-04-20T03:10:35.481Z,23.95
2023-04-20T03:13:18.403Z,23.95
2023-04-20T03:16:10.767Z,23.92
2023-04-20T03:18:55.179Z,23.92
2023-04-20T03:21:26.645Z,23.93
2023-04-20T03:24:04.163Z,23.93
2023-04-20T03:26:37.686Z,23.92
2023-04-20T03:29:26.064Z,23.92
2023-04-20T03:32:01.390Z,23.89
2023-04-20T03:34:36.983Z,23.89
2023-04-20T03:37:10.310Z,23.87
2023-04-20T03:39:43.447Z,23.90
2023-04-20T03:42:13.467Z,23.89
2023-04-20T03:44:51.898Z,23.88
2023-04-20T03:47:26.788Z,23.88
2023-04-20T03:50:05.881Z,23.88
2023-04-20T03:52:41.703Z,23.87
2023-04-20T03:55:19.133Z,23.84
2023-04-20T03:58:04.531Z,23.84
2023-04-20T04:00:49.673Z,23.85
2023-04-20T04:03:27.497Z,23.83
2023-04-20T04:06:01.040Z,23.82
2023-04-20T04:08:34.447Z,23.83
2023-04-20T04:11:15.659Z,23.84
2023-04-20T04:13:46.386Z,23.83
2023-04-20T04:16:24.087Z,23.84
2023-04-20T04:18:55.301Z,23.82
2023-04-20T04:21:28.895Z,23.78
2023-04-20T04:24:09.585Z,23.80
2023-04-20T04:26:47.554Z,23.80
2023-04-20T04:29:25.797Z,23.82
2023-04-20T04:32:00.199Z,23.83
2023-04-20T04:34:39.756Z,23.82
2023-04-20T04:37:16.425Z,23.81
2023-04-20T04:39:55.628Z,23.82
2023-04-20T04:42:37.380Z,23.80
2023-04-20T04:45:13.766Z,23.79
2023-04-20T04:47:48.524Z,23.80
2023-04-20T04:50:23.526Z,23.79
2023-04-20T04:52:58.564Z,23.78
2023-04-20T04:55:28.708Z,23.80
2023-04-20T04:57:57.283Z,23.79
2023-04-20T05:00:31.430Z,23.81
2023-04-20T05:03:14.749Z,23.79
2023-04-20T05:05:50.528Z,23.77
2023-04-20T05:08:27.091Z,23.77
2023-04-20T05:11:03.068Z,23.78
2023-04-20T05:13:36.942Z,23.76
2023-04-20T05:16:15.156Z,23.75
2023-04-20T05:18:55.172Z,23.77
2023-04-20T05:21:34.443Z,23.78
2023-04-20T05:24:06.693Z,23.77
2023-04-20T05:26:39.944Z,23.74
2023-04-20T05:29:14.634Z,23.77
2023-04-20T05:31:45.928Z,23.82
2023-04-20T05:34:17.247Z,23.75
2023-04-20T05:36:48.122Z,23.79
2023-04-20T05:39:26.160Z,23.85
2023-04-20T05:41:59.481Z,23.83
2023-04-20T05:44:30.694Z,23.84
2023-04-20T05:47:08.701Z,23.85
2023-04-20T05:49:42.063Z,23.84
2023-04-20T05:52:18.050Z,23.85
2023-04-20T05:54:50.152Z,23.85
2023-04-20T05:57:25.464Z,23.87
2023-04-20T06:00:04.232Z,23.85
2023-04-20T06:02:44.338Z,23.85
2023-04-20T06:05:21.958Z,23.87
2023-04-20T06:07:56.944Z,23.97
2023-04-20T06:10:32.611Z,23.97
2023-04-20T06:13:07.201Z,24.01
2023-04-20T06:15:44.281Z,24.07
2023-04-20T06:18:18.463Z,24.14
2023-04-20T06:21:00.261Z,24.20
2023-04-20T06:23:33.141Z,24.32
2023-04-20T06:26:06.834Z,24.37
2023-04-20T06:28:38.087Z,24.48
2023-04-20T06:31:12.947Z,24.50
2023-04-20T06:33:44.598Z,24.60
2023-04-20T06:36:22.585Z,24.62
2023-04-20T06:38:55.348Z,24.61
2023-04-20T06:41:29.045Z,24.69
2023-04-20T06:44:02.639Z,24.96
2023-04-20T06:46:33.546Z,24.72
2023-04-20T06:49:03.089Z,24.67
2023-04-20T06:51:45.545Z,24.76
2023-04-20T06:54:23.871Z,24.78
2023-04-20T06:57:04.469Z,24.79
2023-04-20T06:59:43.800Z,24.72
2023-04-20T07:02:17.513Z,24.74
2023-04-20T07:04:55.860Z,24.88
2023-04-20T07:07:32.541Z,24.83
2023-04-20T07:10:09.352Z,24.86
2023-04-20T07:12:47.816Z,24.74
2023-04-20T07:15:18.696Z,24.76
2023-04-20T07:18:00.375Z,24.90
2023-04-20T07:20:39.162Z,24.98
2023-04-20T07:23:15.847Z,25.02
2023-04-20T07:25:52.438Z,25.17
2023-04-20T07:28:31.521Z,24.98
2023-04-20T07:31:02.273Z,24.95
2023-04-20T07:33:40.684Z,25.00
2023-04-20T07:36:19.880Z,24.99
2023-04-20T07:38:57.311Z,24.98
2023-04-20T07:41:26.018Z,25.04
2023-04-20T07:43:59.502Z,25.11
2023-04-20T07:46:31.149Z,25.12
2023-04-20T07:48:59.040Z,25.13
2023-04-20T07:51:40.540Z,25.09
2023-04-20T07:54:12.080Z,25.08
2023-04-20T07:56:55.984Z,25.18
2023-04-20T07:59:35.488Z,25.33
2023-04-20T08:02:04.702Z,25.38
2023-04-20T08:04:40.622Z,25.22
2023-04-20T08:07:14.091Z,25.16
2023-04-20T08:09:50.064Z,25.08
2023-04-20T08:12:26.458Z,25.06
2023-04-20T08:15:06.613Z,25.02
2023-04-20T08:17:37.989Z,25.00
2023-04-20T08:20:10.716Z,24.99
2023-04-20T08:22:53.408Z,24.98
2023-04-20T08:25:27.822Z,24.98
2023-04-20T08:28:04.281Z,24.98
2023-04-20T08:30:37.409Z,24.99
2023-04-20T08:33:06.792Z,25.00
2023-04-20T08:35:35.072Z,25.01
2023-04-20T08:38:05.991Z,25.04
2023-04-20T08:40:41.394Z,25.01
2023-04-20T08:43:21.997Z,25.01
2023-04-20T08:45:58.245Z,25.00
2023-04-20T08:48:48.821Z,25.02
2023-04-20T08:51:20.188Z,24.92
2023-04-20T08:53:49.204Z,24.81
2023-04-20T08:56:35.780Z,24.74
2023-04-20T08:59:09.545Z,24.76
2023-04-20T09:01:49.570Z,24.72
2023-04-20T09:04:29.381Z,24.63
2023-04-20T09:07:03.071Z,24.60
2023-04-20T09:09:33.984Z,24.56
2023-04-20T09:12:13.030Z,24.59
2023-04-20T09:14:50.715Z,24.54
2023-04-20T09:17:44.710Z,24.53
2023-04-20T09:20:15.878Z,24.48
2023-04-20T09:22:54.811Z,24.42
2023-04-20T09:25:29.619Z,24.42
2023-04-20T09:28:01.599Z,24.44
2023-04-20T09:30:47.098Z,24.43
2023-04-20T09:33:27.747Z,24.44
2023-04-20T09:36:11.883Z,24.53
2023-04-20T09:38:45.718Z,24.53
2023-04-20T09:41:24.043Z,24.48
2023-04-20T09:43:58.706Z,24.47
2023-04-20T09:46:34.173Z,24.39
2023-04-20T09:49:07.261Z,24.41
2023-04-20T09:51:38.576Z,24.38
2023-04-20T09:54:08.632Z,24.36
2023-04-20T09:56:39.429Z,24.33
2023-04-20T09:59:10.891Z,24.37
2023-04-20T10:01:38.766Z,24.35
2023-04-20T10:04:14.812Z,24.35
2023-04-20T10:07:06.288Z,24.36
2023-04-20T10:09:38.115Z,24.35
2023-04-20T10:12:14.112Z,24.35
2023-04-20T10:14:57.398Z,24.40
2023-04-20T10:17:33.256Z,24.39
2023-04-20T10:20:04.257Z,24.36
2023-04-20T10:22:35.816Z,24.35
2023-04-20T10:25:18.916Z,24.31
2023-04-20T10:27:58.378Z,24.31
2023-04-20T10:30:36.147Z,24.30
2023-04-20T10:33:18.536Z,24.27
2023-04-20T10:36:00.095Z,24.25
2023-04-20T10:38:42.101Z,24.28
2023-04-20T10:41:13.462Z,24.26
2023-04-20T10:43:54.506Z,24.19
2023-04-20T10:46:28.011Z,24.15
2023-04-20T10:49:01.369Z,24.14
2023-04-20T10:51:33.014Z,24.14
2023-04-20T10:54:08.301Z,24.12
2023-04-20T10:56:44.685Z,24.11
2023-04-20T10:59:23.681Z,24.10
2023-04-20T11:01:55.221Z,24.10
2023-04-20T11:04:37.469Z,24.10
2023-04-20T11:07:13.683Z,24.13
2023-04-20T11:09:57.683Z,24.05
2023-04-20T11:12:40.245Z,24.05
2023-04-20T11:15:10.196Z,24.05
2023-04-20T11:17:46.712Z,24.04
2023-04-20T11:20:28.277Z,24.02
2023-04-20T11:23:05.123Z,24.03
2023-04-20T11:25:39.575Z,24.03
2023-04-20T11:28:16.311Z,24.00
2023-04-20T11:30:51.237Z,24.01
2023-04-20T11:33:34.367Z,24.02
2023-04-20T11:36:18.434Z,24.07
2023-04-20T11:38:51.573Z,24.11
2023-04-20T11:41:31.095Z,24.08
2023-04-20T11:44:03.499Z,24.15
2023-04-20T11:46:38.057Z,24.23
2023-04-20T11:49:12.538Z,24.28
2023-04-20T11:51:45.350Z,24.31
2023-04-20T11:54:19.177Z,24.33
2023-04-20T11:56:47.503Z,24.35
2023-04-20T11:59:25.736Z,24.41
2023-04-20T12:02:04.799Z,24.51
2023-04-20T12:04:36.240Z,24.57
2023-04-20T12:07:12.149Z,24.66
2023-04-20T12:09:44.869Z,24.81
2023-04-20T12:12:21.087Z,24.83
2023-04-20T12:14:56.681Z,24.84
2023-04-20T12:17:25.262Z,24.94
2023-04-20T12:20:00.814Z,24.87
2023-04-20T12:22:30.922Z,24.87
2023-04-20T12:25:05.132Z,24.87
2023-04-20T12:27:44.210Z,24.91
2023-04-20T12:30:20.187Z,24.94
2023-04-20T12:32:50.756Z,24.99
2023-04-20T12:35:19.230Z,24.98
2023-04-20T12:37:52.371Z,25.01
2023-04-20T12:40:30.459Z,25.16
2023-04-20T12:43:09.384Z,25.02
2023-04-20T12:45:40.316Z,24.87
2023-04-20T12:48:13.288Z,24.89
2023-04-20T12:50:47.248Z,24.86
2023-04-20T12:53:21.125Z,24.83
2023-04-20T12:55:55.020Z,24.75
2023-04-20T12:58:32.731Z,24.74
2023-04-20T13:01:00.795Z,24.78
2023-04-20T13:03:34.268Z,24.67
2023-04-20T13:06:15.764Z,24.70
2023-04-20T13:08:58.248Z,24.59
2023-04-20T13:11:34.816Z,24.50
2023-04-20T13:14:09.159Z,24.48
2023-04-20T13:16:48.786Z,24.48
2023-04-20T13:19:27.911Z,24.46
2023-04-20T13:22:00.344Z,24.46
2023-04-20T13:24:35.650Z,24.42
2023-04-20T13:27:06.092Z,24.35
2023-04-20T13:29:38.598Z,24.34
2023-04-20T13:32:11.427Z,24.34
2023-04-20T13:34:44.767Z,24.29
2023-04-20T13:37:16.193Z,24.25
2023-04-20T13:39:46.624Z,24.24
2023-04-20T13:42:22.680Z,24.26
2023-04-20T13:44:55.356Z,24.26
2023-04-20T13:47:25.932Z,24.22
2023-04-20T13:50:02.769Z,24.22
2023-04-20T13:52:34.354Z,24.21
2023-04-20T13:55:05.938Z,24.23
2023-04-20T13:57:42.992Z,24.21
2023-04-20T14:00:22.296Z,24.21
2023-04-20T14:02:55.202Z,24.24
2023-04-20T14:05:31.818Z,24.30
2023-04-20T14:08:12.949Z,24.32
2023-04-20T14:10:55.984Z,24.23
2023-04-20T14:13:32.107Z,24.25
2023-04-20T14:16:03.746Z,24.20
2023-04-20T14:18:40.289Z,24.16
2023-04-20T14:21:14.434Z,24.17
2023-04-20T14:23:48.193Z,24.15
2023-04-20T14:26:21.733Z,24.16
2023-04-20T14:28:57.649Z,24.15
2023-04-20T14:31:31.309Z,24.16
2023-04-20T14:34:07.341Z,24.23
2023-04-20T14:36:39.431Z,24.34
2023-04-20T14:39:18.045Z,24.39
2023-04-20T14:41:47.067Z,24.42
2023-04-20T14:44:20.659Z,24.46
2023-04-20T14:46:51.796Z,24.50
2023-04-20T14:49:20.366Z,24.53
2023-04-20T14:51:50.496Z,24.54
2023-04-20T14:54:24.681Z,24.56
2023-04-20T14:56:53.075Z,24.59
2023-04-20T14:59:27.215Z,24.56
2023-04-20T15:02:07.639Z,24.57
2023-04-20T15:04:35.804Z,24.53
2023-04-20T15:07:11.643Z,24.61
2023-04-20T15:09:42.608Z,24.91
2023-04-20T15:12:23.892Z,24.86
2023-04-20T15:14:54.832Z,24.85
2023-04-20T15:17:30.150Z,24.91
2023-04-20T15:20:05.676Z,24.99
2023-04-20T15:22:36.914Z,25.25
2023-04-20T15:25:09.360Z,25.44
2023-04-20T15:27:39.848Z,25.67
2023-04-20T15:30:16.678Z,26.16
2023-04-20T15:32:49.878Z,26.26
2023-04-20T15:35:20.560Z,26.13
2023-04-20T15:37:58.147Z,26.01
2023-04-20T15:40:27.635Z,25.79
2023-04-20T15:43:01.585Z,25.93
2023-04-20T15:45:38.560Z,26.00
2023-04-20T15:48:12.413Z,26.12
2023-04-20T15:50:54.136Z,25.87
2023-04-20T15:53:23.572Z,25.57
2023-04-20T15:55:59.888Z,25.36
2023-04-20T15:58:37.968Z,25.22
2023-04-20T16:01:14.681Z,25.01
2023-04-20T16:03:51.537Z,24.86
2023-04-20T16:06:25.024Z,24.83
2023-04-20T16:09:10.047Z,24.81
2023-04-20T16:11:40.831Z,24.73
2023-04-20T16:14:21.775Z,24.71
2023-04-20T16:17:04.439Z,24.74
2023-04-20T16:19:40.793Z,24.72
2023-04-20T16:22:14.596Z,24.73
2023-04-20T16:24:56.965Z,24.59
2023-04-20T16:27:43.240Z,24.52
2023-04-20T16:30:14.824Z,24.47
2023-04-20T16:32:50.117Z,24.40
2023-04-20T16:35:21.301Z,24.36
2023-04-20T16:37:54.933Z,24.38
2023-04-20T16:40:38.142Z,24.32
2023-04-20T16:43:11.398Z,24.34
2023-04-20T16:45:40.409Z,24.32
2023-04-20T16:48:22.124Z,24.28
2023-04-20T16:50:56.253Z,24.24
2023-04-20T16:53:35.428Z,24.21
2023-04-20T16:56:05.477Z,24.19
2023-04-20T16:58:33.464Z,24.18
2023-04-20T17:01:05.650Z,24.14
2023-04-20T17:03:42.022Z,24.25
2023-04-20T17:06:15.445Z,24.20
2023-04-20T17:08:51.446Z,24.14
2023-04-20T17:11:26.293Z,24.11
2023-04-20T17:13:57.423Z,24.07
2023-04-20T17:16:27.218Z,24.04
2023-04-20T17:19:03.437Z,24.02
2023-04-20T17:21:36.284Z,23.99
2023-04-20T17:24:11.697Z,23.98
2023-04-20T17:26:46.844Z,23.99
2023-04-20T17:29:19.928Z,23.93
2023-04-20T17:31:50.459Z,23.90
2023-04-20T17:34:26.059Z,23.85
2023-04-20T17:37:01.138Z,23.80
2023-04-20T17:39:35.213Z,23.81
2023-04-20T17:42:12.883Z,23.83
2023-04-20T17:44:47.005Z,23.81
2023-04-20T17:47:23.769Z,23.81
2023-04-20T17:49:56.819Z,23.79
2023-04-20T17:52:34.723Z,23.79
2023-04-20T17:55:06.812Z,23.77
2023-04-20T17:57:47.843Z,23.79
2023-04-20T18:00:16.250Z,23.78
2023-04-20T18:02:49.474Z,23.74
2023-04-20T18:05:26.053Z,23.74
2023-04-20T18:08:02.087Z,23.77
2023-04-20T18:10:34.072Z,23.74
2023-04-20T18:13:09.953Z,23.76
2023-04-20T18:15:48.724Z,23.73
2023-04-20T18:18:22.344Z,23.69
2023-04-20T18:20:59.539Z,23.67
2023-04-20T18:23:30.074Z,23.66
2023-04-20T18:26:06.229Z,23.61
2023-04-20T18:28:42.456Z,23.61
2023-04-20T18:31:16.692Z,23.56
2023-04-20T18:33:52.217Z,23.62
2023-04-20T18:36:22.662Z,23.62
2023-04-20T18:38:59.355Z,23.61
2023-04-20T18:41:36.791Z,23.64
2023-04-20T18:44:10.857Z,23.66
2023-04-20T18:46:44.772Z,23.66
2023-04-20T18:49:15.004Z,23.65
2023-04-20T18:51:50.085Z,23.68
2023-04-20T18:54:24.958Z,23.62
2023-04-20T18:56:57.599Z,23.64
2023-04-20T18:59:33.428Z,23.63
2023-04-20T19:02:10.674Z,23.62
2023-04-20T19:04:41.269Z,23.60
2023-04-20T19:07:16.795Z,23.58
2023-04-20T19:09:49.681Z,23.54
2023-04-20T19:12:27.864Z,23.57
2023-04-20T19:15:06.181Z,23.53
2023-04-20T19:17:39.897Z,23.51
2023-04-20T19:20:13.508Z,23.53
2023-04-20T19:22:48.932Z,23.53
2023-04-20T19:25:24.269Z,23.52
2023-04-20T19:27:59.556Z,23.48
2023-04-20T19:30:35.417Z,23.48
2023-04-20T19:33:07.768Z,23.50
2023-04-20T19:35:48.302Z,23.49
2023-04-20T19:38:26.468Z,23.48
2023-04-20T19:41:02.570Z,23.49
2023-04-20T19:43:37.687Z,23.50
2023-04-20T19:46:15.236Z,23.50
2023-04-20T19:48:44.747Z,23.51
2023-04-20T19:51:19.204Z,23.49
2023-04-20T19:53:49.772Z,23.49
2023-04-20T19:56:24.116Z,23.46
2023-04-20T19:58:59.979Z,23.43
2023-04-20T20:01:31.723Z,23.44
2023-04-20T20:04:10.064Z,23.47
2023-04-20T20:06:45.740Z,23.43
2023-04-20T20:09:23.644Z,23.44
2023-04-20T20:12:01.922Z,23.44
2023-04-20T20:14:31.829Z,23.42
2023-04-20T20:17:05.614Z,23.41
2023-04-20T20:19:46.909Z,23.40
2023-04-20T20:22:22.186Z,23.37
2023-04-20T20:24:58.174Z,23.34
2023-04-20T20:27:40.020Z,23.32
2023-04-20T20:30:11.254Z,23.35
2023-04-20T20:32:44.257Z,23.33
2023-04-20T20:35:19.198Z,23.32
2023-04-20T20:37:54.517Z,23.31
2023-04-20T20:40:31.466Z,23.33
2023-04-20T20:43:10.017Z,23.30
2023-04-20T20:45:48.079Z,23.28
2023-04-20T20:48:18.508Z,23.28
2023-04-20T20:50:49.127Z,23.27
2023-04-20T20:53:20.452Z,23.27
2023-04-20T20:55:54.543Z,23.25
2023-04-20T20:58:31.057Z,23.29
2023-04-20T21:01:09.957Z,23.28
2023-04-20T21:03:42.296Z,23.28
2023-04-20T21:06:19.018Z,23.26
2023-04-20T21:08:49.362Z,23.28
2023-04-20T21:11:22.866Z,23.31
2023-04-20T21:14:01.994Z,23.27
2023-04-20T21:16:38.128Z,23.28
2023-04-20T21:19:16.419Z,23.27
2023-04-20T21:21:51.843Z,23.27
2023-04-20T21:24:26.975Z,23.27
2023-04-20T21:27:00.694Z,23.24
2023-04-20T21:29:33.532Z,23.22
2023-04-20T21:32:07.172Z,23.23
2023-04-20T21:34:43.043Z,23.20
2023-04-20T21:37:21.359Z,23.21
2023-04-20T21:39:54.231Z,23.18
2023-04-20T21:42:25.757Z,23.16
2023-04-20T21:44:55.491Z,23.16
2023-04-20T21:47:31.082Z,23.17
2023-04-20T21:50:06.573Z,23.16
2023-04-20T21:52:39.507Z,23.18
2023-04-20T21:55:08.687Z,23.15
2023-04-20T21:57:39.836Z,23.17
2023-04-20T22:00:14.027Z,23.17
2023-04-20T22:02:54.139Z,23.13
2023-04-20T22:05:26.138Z,23.17
2023-04-20T22:07:59.987Z,23.13
2023-04-20T22:10:33.991Z,23.16
2023-04-20T22:13:12.465Z,23.13
2023-04-20T22:15:52.916Z,23.16
2023-04-20T22:18:24.062Z,23.17
2023-04-20T22:20:57.936Z,23.17
2023-04-20T22:23:33.404Z,23.14
2023-04-20T22:26:09.824Z,23.17
2023-04-20T22:28:44.107Z,23.16
2023-04-20T22:31:17.460Z,23.13
2023-04-20T22:33:53.706Z,23.15
2023-04-20T22:36:32.058Z,23.12
2023-04-20T22:39:08.555Z,23.12
2023-04-20T22:41:44.431Z,23.08
2023-04-20T22:44:12.969Z,23.10
2023-04-20T22:46:50.959Z,23.10
2023-04-20T22:49:26.009Z,23.10
2023-04-20T22:52:03.234Z,23.08
2023-04-20T22:54:37.688Z,23.11
2023-04-20T22:57:13.798Z,23.07
2023-04-20T22:59:48.929Z,23.10
2023-04-20T23:02:26.014Z,23.11
2023-04-20T23:05:01.503Z,23.11
2023-04-20T23:07:37.802Z,23.10
2023-04-20T23:10:16.142Z,23.09
2023-04-20T23:12:48.417Z,23.12
2023-04-20T23:15:24.625Z,23.12
2023-04-20T23:17:57.134Z,23.10
2023-04-20T23:20:31.063Z,23.04
2023-04-20T23:23:03.300Z,23.07
2023-04-20T23:25:31.826Z,23.06
2023-04-20T23:28:10.789Z,23.04
2023-04-20T23:30:43.415Z,23.04
2023-04-20T23:33:13.838Z,23.07
2023-04-20T23:35:51.445Z,23.08
2023-04-20T23:38:27.322Z,23.07
2023-04-20T23:41:00.498Z,23.04
2023-04-20T23:43:38.379Z,23.02
2023-04-20T23:46:18.423Z,23.03
2023-04-20T23:48:52.115Z,23.05
2023-04-20T23:51:24.563Z,23.03
2023-04-20T23:53:54.479Z,23.00
2023-04-20T23:56:32.642Z,22.99
2023-04-20T23:59:03.224Z,22.98
